Time;durP1;ratioP1;P1;durP2;ratioP2;P2;SDS_P1;SDS_P2;PMS_P1;PMS_P2;Temp;Humidity;BMP_temperature;BMP_pressure;BME280_temperature;BME280_humidity;BME280_pressure;Samples;Min_cycle;Max_cycle;Signal;HPM_P1;HPM_P2
2021/03/25 00:01:45;;;;;;;5.15;3.38;;;;;;;18.58;38.72;99792.28;5048107;28;20052;-69
2021/03/25 00:04:10;;;;;;;5.22;3.40;;;;;;;18.56;38.93;99786.31;5032162;28;20029;-69
2021/03/25 00:06:44;;;;;;;6.20;3.40;;;;;;;18.57;38.67;99787.97;5033096;28;20037;-69
2021/03/25 00:09:17;;;;;;;5.32;3.42;;;;;;;18.57;38.70;99793.38;5033453;28;20044;-69
2021/03/25 00:11:42;;;;;;;4.38;2.80;;;;;;;18.56;38.81;99786.31;5032831;28;20037;-69
2021/03/25 00:14:08;;;;;;;4.43;2.85;;;;;;;18.57;38.56;99793.38;5033483;28;20042;-69
2021/03/25 00:16:33;;;;;;;4.43;3.10;;;;;;;18.55;38.69;99790.13;5032966;28;20398;-69
2021/03/25 00:18:59;;;;;;;5.00;3.38;;;;;;;18.56;38.55;99786.31;5033423;28;20068;-69
2021/03/25 00:21:26;;;;;;;5.68;3.13;;;;;;;18.54;38.70;99783.88;5031469;28;20041;-69
2021/03/25 00:23:52;;;;;;;5.18;3.30;;;;;;;18.53;38.63;99787.69;5033073;28;20360;-69
2021/03/25 00:26:17;;;;;;;5.05;3.40;;;;;;;18.54;38.87;99785.78;5032681;28;20095;-69
2021/03/25 00:28:42;;;;;;;4.35;2.92;;;;;;;18.53;38.82;99778.75;5033515;28;20009;-69
2021/03/25 00:31:08;;;;;;;5.50;3.20;;;;;;;18.54;38.87;99785.78;5032408;28;20129;-69
2021/03/25 00:33:33;;;;;;;4.90;2.92;;;;;;;18.53;38.76;99781.47;5048681;28;20037;-69
2021/03/25 00:35:59;;;;;;;5.25;3.08;;;;;;;18.51;38.88;99780.94;5032853;28;20083;-69
2021/03/25 00:38:24;;;;;;;4.35;2.92;;;;;;;18.52;38.92;99777.94;5033145;28;20030;-69
2021/03/25 00:40:50;;;;;;;4.35;2.90;;;;;;;18.51;38.61;99787.16;5014762;28;20079;-69
2021/03/25 00:43:17;;;;;;;5.40;3.40;;;;;;;18.49;38.77;99788.53;5033207;28;20030;-69
2021/03/25 00:45:44;;;;;;;5.60;3.10;;;;;;;18.49;38.71;99781.19;5032722;28;20030;-69
2021/03/25 00:48:09;;;;;;;4.88;3.35;;;;;;;18.49;38.62;99781.19;5032992;28;20456;-69
2021/03/25 00:50:38;;;;;;;4.88;2.92;;;;;;;18.49;38.67;99780.38;5037360;28;20036;-69
2021/03/25 00:53:03;;;;;;;5.65;3.25;;;;;;;18.47;38.75;99774.44;5054935;28;20036;-69
2021/03/25 00:55:29;;;;;;;4.65;2.75;;;;;;;18.48;39.01;99774.16;5055134;28;20468;-70
2021/03/25 00:57:54;;;;;;;4.40;3.00;;;;;;;18.46;38.75;99775.53;5057098;28;20029;-69
2021/03/25 01:00:28;;;;;;;3.83;2.80;;;;;;;18.49;38.93;99774.97;5056574;28;20083;-70
2021/03/25 01:02:53;;;;;;;4.60;2.95;;;;;;;18.46;38.87;99768.19;5057272;28;20447;-69
2021/03/25 01:05:20;;;;;;;4.63;2.95;;;;;;;18.47;38.97;99766.28;5056343;28;20043;-68
2021/03/25 01:07:45;;;;;;;5.57;3.35;;;;;;;18.46;38.76;99770.09;5056563;28;20376;-69
2021/03/25 01:10:32;;;;;;;4.18;3.00;;;;;;;18.46;38.99;99770.09;5056193;28;20025;-68
2021/03/25 01:12:57;;;;;;;4.32;2.80;;;;;;;18.45;38.87;99763.88;5056338;28;20091;-68
2021/03/25 01:15:23;;;;;;;4.43;2.80;;;;;;;18.45;38.85;99768.50;5054909;28;20493;-70
2021/03/25 01:17:52;;;;;;;4.55;3.03;;;;;;;18.44;38.67;99766.84;5056515;28;20025;-70
2021/03/25 01:20:26;;;;;;;4.72;3.05;;;;;;;18.43;38.67;99760.63;5055956;28;20021;-69
2021/03/25 01:22:51;;;;;;;5.18;3.20;;;;;;;18.43;38.76;99757.91;5055167;28;20035;-70
2021/03/25 01:25:17;;;;;;;4.30;3.05;;;;;;;18.44;38.80;99753.28;5054853;28;20060;-70
2021/03/25 01:27:42;;;;;;;4.03;2.83;;;;;;;18.42;38.91;99747.31;5056211;28;20116;-70
2021/03/25 01:30:08;;;;;;;4.43;2.92;;;;;;;18.44;38.71;99756.00;5055578;28;20025;-69
2021/03/25 01:32:33;;;;;;;4.88;2.95;;;;;;;18.41;38.85;99751.16;5056259;28;20036;-70
2021/03/25 01:34:59;;;;;;;4.57;3.00;;;;;;;18.40;39.09;99747.63;5056162;28;20379;-69
2021/03/25 01:37:24;;;;;;;6.00;2.80;;;;;;;18.41;38.89;99751.16;5054442;28;20037;-70
2021/03/25 01:39:50;;;;;;;4.95;3.13;;;;;;;18.38;38.96;99749.81;5054815;28;20598;-69
2021/03/25 01:42:28;;;;;;;4.22;2.80;;;;;;;18.38;39.08;99751.72;5056009;28;20055;-69
2021/03/25 01:44:53;;;;;;;4.18;2.65;;;;;;;18.37;39.08;99748.19;5056149;28;20028;-70
2021/03/25 01:47:19;;;;;;;4.60;2.90;;;;;;;18.38;39.22;99746.28;5054217;28;20045;-68
2021/03/25 01:49:44;;;;;;;4.60;3.03;;;;;;;18.39;38.98;99750.59;5056138;28;20032;-68
2021/03/25 01:52:18;;;;;;;4.22;2.78;;;;;;;18.38;39.07;99749.00;5055334;28;20043;-69
2021/03/25 01:54:54;;;;;;;5.40;3.10;;;;;;;18.36;38.89;99745.75;5055899;28;20144;-68
2021/03/25 01:57:44;;;;;;;4.45;2.95;;;;;;;18.38;38.74;99740.84;5069710;28;20036;-69
2021/03/25 02:00:32;;;;;;;4.57;2.85;;;;;;;18.37;38.91;99744.66;5055532;28;20113;-68
2021/03/25 02:03:23;;;;;;;4.95;3.13;;;;;;;18.32;39.01;99738.19;5055287;28;20083;-69
2021/03/25 02:05:57;;;;;;;;;;;;;;;18.33;38.92;99733.56;5070992;28;20033;-68
2021/03/25 02:08:44;;;;;;;3.65;2.70;;;;;;;18.32;38.99;99731.91;5055468;28;19913;-69
2021/03/25 02:11:34;;;;;;;4.40;2.80;;;;;;;18.32;38.87;99732.75;5068204;28;20052;-69
2021/03/25 02:14:01;;;;;;;4.50;2.80;;;;;;;18.32;39.03;99729.19;5069108;28;20446;-68
2021/03/25 02:17:03;;;;;;;4.88;3.08;;;;;;;18.32;39.19;99727.31;5054941;28;20048;-69
2021/03/25 02:19:53;;;;;;;4.68;2.97;;;;;;;18.29;38.95;99727.88;5068608;28;20387;-69
2021/03/25 02:22:52;;;;;;;5.38;2.70;;;;;;;18.30;38.79;99724.06;5054847;28;20044;-69
2021/03/25 02:25:23;;;;;;;4.75;2.92;;;;;;;18.31;38.81;99719.47;5053497;28;20036;-68
2021/03/25 02:28:00;;;;;;;3.83;2.70;;;;;;;18.30;38.77;99717.84;5070325;28;20025;-69
2021/03/25 02:30:38;;;;;;;4.78;3.10;;;;;;;18.29;38.96;99705.34;5069933;28;20045;-69
2021/03/25 02:33:04;;;;;;;4.78;3.17;;;;;;;18.28;39.06;99704.56;5053827;28;20021;-69
2021/03/25 02:35:34;;;;;;;4.95;3.17;;;;;;;18.27;38.97;99708.38;5070400;28;20033;-69
2021/03/25 02:38:15;;;;;;;4.15;2.70;;;;;;;18.27;38.77;99702.94;5070219;28;20037;-69
2021/03/25 02:40:46;;;;;;;4.70;2.97;;;;;;;18.27;38.94;99702.09;5069714;28;20044;-69
2021/03/25 02:43:36;;;;;;;6.07;3.25;;;;;;;18.26;39.18;99706.72;5070389;28;20086;-69
2021/03/25 02:46:23;;;;;;;4.30;2.90;;;;;;;18.25;39.09;99696.97;5050575;28;20040;-69
2021/03/25 02:48:51;;;;;;;3.83;2.65;;;;;;;18.23;39.04;99701.88;5067503;28;20048;-69
2021/03/25 02:51:36;;;;;;;5.30;3.00;;;;;;;18.25;39.07;99702.41;5069394;28;20044;-69
2021/03/25 02:54:02;;;;;;;4.10;3.03;;;;;;;18.23;39.15;99701.88;5054669;28;20051;-69
2021/03/25 02:56:44;;;;;;;4.60;2.78;;;;;;;18.23;39.00;99701.88;5054229;28;20408;-69
2021/03/25 02:59:29;;;;;;;6.38;3.00;;;;;;;18.21;39.18;99701.34;5070110;28;20029;-69
2021/03/25 03:02:01;;;;;;;4.60;2.80;;;;;;;18.22;38.92;99694.00;5052853;28;20044;-69
2021/03/25 03:04:29;;;;;;;5.78;2.90;;;;;;;18.22;38.96;99700.25;5069543;28;20467;-69
2021/03/25 03:07:02;;;;;;;4.63;2.80;;;;;;;18.21;39.10;99695.09;5069152;28;20037;-70
2021/03/25 03:09:31;;;;;;;4.13;2.80;;;;;;;18.21;39.02;99695.91;5069207;28;20459;-70
2021/03/25 03:11:57;;;;;;;5.07;2.72;;;;;;;18.20;39.19;99696.22;5068880;28;20513;-70
2021/03/25 03:14:40;;;;;;;5.97;3.10;;;;;;;18.19;39.04;99695.38;5052691;28;20501;-70
2021/03/25 03:17:20;;;;;;;5.47;2.80;;;;;;;18.19;38.98;99689.94;5067859;28;20044;-70
2021/03/25 03:20:09;;;;;;;4.68;2.97;;;;;;;18.20;39.01;99686.16;5053084;28;20025;-69
2021/03/25 03:22:35;;;;;;;4.78;2.70;;;;;;;18.18;38.88;99682.91;5066662;28;20495;-69
2021/03/25 03:25:04;;;;;;;4.50;3.17;;;;;;;18.16;39.21;99685.09;5035723;28;20450;-67
2021/03/25 03:27:32;;;;;;;4.55;2.90;;;;;;;18.18;39.14;99690.25;5068923;28;20024;-69
2021/03/25 03:29:58;;;;;;;4.18;2.97;;;;;;;18.17;39.29;99680.47;5069125;28;20031;-69
2021/03/25 03:32:47;;;;;;;4.20;2.92;;;;;;;18.16;39.03;99685.09;5068834;28;20037;-69
2021/03/25 03:35:20;;;;;;;4.38;2.97;;;;;;;18.17;39.28;99675.03;5069078;28;20372;-69
2021/03/25 03:37:50;;;;;;;4.15;2.90;;;;;;;18.16;38.89;99673.44;5068623;28;20020;-69
2021/03/25 03:40:35;;;;;;;5.00;3.20;;;;;;;18.16;39.08;99673.44;5068272;28;20033;-69
2021/03/25 03:43:04;;;;;;;4.72;3.05;;;;;;;18.15;38.91;99675.34;5066628;28;20029;-69
2021/03/25 03:45:29;;;;;;;5.25;3.17;;;;;;;18.16;39.01;99673.44;5068451;28;20044;-70
2021/03/25 03:47:55;;;;;;;5.15;3.00;;;;;;;18.14;39.14;99689.97;5052486;28;20013;-70
2021/03/25 03:50:29;;;;;;;4.70;2.88;;;;;;;18.13;39.25;99674.00;5035295;28;20506;-69
2021/03/25 03:52:54;;;;;;;4.47;2.95;;;;;;;18.13;39.22;99679.44;5052611;28;20085;-70
2021/03/25 03:55:20;;;;;;;5.07;3.40;;;;;;;18.13;39.10;99676.72;5068782;28;20032;-69
2021/03/25 03:58:09;;;;;;;4.63;3.10;;;;;;;18.13;39.09;99684.84;5052441;28;20028;-69
2021/03/25 04:00:38;;;;;;;7.22;3.25;;;;;;;18.11;39.17;99682.41;5068526;28;20036;-70
2021/03/25 04:03:18;;;;;;;4.85;3.08;;;;;;;18.10;39.07;99680.81;5053462;28;20025;-69
2021/03/25 04:05:45;;;;;;;4.10;3.00;;;;;;;18.10;39.10;99675.38;5053125;28;20055;-69
2021/03/25 04:08:16;;;;;;;5.22;2.90;;;;;;;18.08;38.95;99682.97;5068825;28;20048;-70
2021/03/25 04:10:46;;;;;;;5.30;3.20;;;;;;;18.07;39.29;99670.50;5068312;28;20462;-70
2021/03/25 04:13:13;;;;;;;4.57;3.15;;;;;;;18.09;39.30;99674.56;5068547;28;20061;-69
2021/03/25 04:15:41;;;;;;;6.15;2.92;;;;;;;18.09;39.32;99669.13;5051591;28;20041;-69
2021/03/25 04:18:16;;;;;;;4.93;3.47;;;;;;;18.08;39.09;99669.44;5068551;28;20029;-70
2021/03/25 04:20:47;;;;;;;4.78;3.03;;;;;;;18.07;39.32;99682.19;5051159;28;20120;-69
2021/03/25 04:23:13;;;;;;;4.70;3.22;;;;;;;18.06;38.90;99680.53;5051894;28;20021;-70
2021/03/25 04:25:50;;;;;;;4.03;2.88;;;;;;;18.05;39.35;99686.28;5051306;28;20558;-69
2021/03/25 04:28:27;;;;;;;5.03;3.33;;;;;;;18.05;39.29;99680.84;5068599;28;20382;-69
2021/03/25 04:30:53;;;;;;;5.07;2.90;;;;;;;18.06;39.07;99679.75;5067547;28;20048;-70
2021/03/25 04:33:20;;;;;;;4.82;3.15;;;;;;;18.05;38.92;99678.13;5068407;28;20033;-70
2021/03/25 04:35:45;;;;;;;4.50;3.03;;;;;;;18.05;39.20;99681.66;5067846;28;20037;-70
2021/03/25 04:38:18;;;;;;;4.60;2.88;;;;;;;18.04;39.17;99677.28;5068428;28;20029;-70
2021/03/25 04:40:44;;;;;;;4.28;2.75;;;;;;;18.01;39.19;99682.47;5051409;28;20039;-70
2021/03/25 04:43:10;;;;;;;4.55;3.10;;;;;;;18.02;39.30;99675.94;5053282;28;20021;-69
2021/03/25 04:45:56;;;;;;;4.63;2.85;;;;;;;18.02;39.19;99673.25;5051148;28;20395;-69
2021/03/25 04:48:23;;;;;;;6.55;3.17;;;;;;;18.01;39.35;99675.16;5067371;28;20108;-70
2021/03/25 04:51:21;;;;;;;4.75;3.15;;;;;;;18.00;39.31;99675.44;5067671;28;20508;-70
2021/03/25 04:53:47;;;;;;;5.00;3.03;;;;;;;17.98;39.37;99667.59;5050811;28;20033;-70
2021/03/25 04:56:18;;;;;;;4.80;3.08;;;;;;;17.97;39.35;99668.69;5067854;28;20167;-70
2021/03/25 04:58:48;;;;;;;4.45;2.97;;;;;;;17.98;39.24;99672.22;5068094;28;20036;-70
2021/03/25 05:01:14;;;;;;;4.25;2.90;;;;;;;17.98;39.40;99672.22;5067761;28;20052;-70
2021/03/25 05:03:40;;;;;;;5.45;2.83;;;;;;;17.98;39.45;99669.50;5048244;28;20029;-70
2021/03/25 05:06:05;;;;;;;4.63;2.95;;;;;;;17.97;39.71;99673.28;5031176;28;20112;-70
2021/03/25 05:08:32;;;;;;;4.03;2.60;;;;;;;17.96;39.66;99672.47;5032921;28;20025;-70
2021/03/25 05:11:03;;;;;;;4.47;2.80;;;;;;;17.98;39.56;99674.91;5014706;28;20045;-69
2021/03/25 05:13:42;;;;;;;5.10;3.00;;;;;;;17.96;39.47;99669.75;5032740;28;20310;-70
2021/03/25 05:16:16;;;;;;;5.40;3.05;;;;;;;17.97;39.56;99665.13;5032369;28;20037;-70
2021/03/25 05:18:53;;;;;;;6.00;3.05;;;;;;;17.95;39.88;99664.63;5048258;28;20121;-70
2021/03/25 05:21:24;;;;;;;8.30;3.03;;;;;;;17.95;39.78;99662.72;5032420;28;20042;-70
2021/03/25 05:24:13;;;;;;;4.95;3.00;;;;;;;17.96;39.63;99663.53;5015652;28;20017;-70
2021/03/25 05:26:45;;;;;;;6.07;2.55;;;;;;;17.95;39.66;99664.63;5031145;28;20041;-69
2021/03/25 05:29:10;;;;;;;4.40;2.78;;;;;;;17.96;39.88;99668.97;5031477;28;20213;-69
2021/03/25 05:31:36;;;;;;;4.10;2.63;;;;;;;17.96;39.54;99668.97;5030702;28;20041;-69
2021/03/25 05:34:04;;;;;;;5.63;2.78;;;;;;;17.94;39.93;99668.41;5031513;28;20544;-70
2021/03/25 05:36:30;;;;;;;8.13;3.10;;;;;;;17.95;39.76;99678.19;5032071;28;20037;-70
2021/03/25 05:38:56;;;;;;;5.25;3.00;;;;;;;17.93;39.57;99674.94;5016904;28;20026;-70
2021/03/25 05:41:52;;;;;;;4.40;2.88;;;;;;;17.94;39.70;99684.69;5034494;28;20526;-70
2021/03/25 05:44:42;;;;;;;4.80;2.65;;;;;;;17.92;39.75;99679.53;5036095;28;20036;-70
2021/03/25 05:47:31;;;;;;;4.63;2.70;;;;;;;17.91;40.00;99682.53;5035572;28;20427;-70
2021/03/25 05:50:05;;;;;;;5.05;3.10;;;;;;;17.92;40.05;99684.16;5034949;28;20486;-70
2021/03/25 05:53:08;;;;;;;5.28;2.80;;;;;;;17.89;40.03;99691.75;5035597;28;20080;-70
2021/03/25 05:55:54;;;;;;;4.50;2.83;;;;;;;17.92;39.73;99690.38;5035518;28;20395;-70
2021/03/25 05:58:36;;;;;;;5.03;2.60;;;;;;;17.92;40.01;99695.81;5034750;28;20021;-69
2021/03/25 06:01:13;;;;;;;6.32;2.95;;;;;;;17.94;40.69;99695.53;5035310;28;20450;-69
2021/03/25 06:03:40;;;;;;;4.13;2.55;;;;;;;17.94;40.64;99700.97;5034419;28;20028;-71
2021/03/25 06:06:11;;;;;;;6.85;2.70;;;;;;;17.94;40.63;99693.63;5034020;28;20480;-69
2021/03/25 06:08:42;;;;;;;6.18;2.60;;;;;;;17.95;40.60;99700.69;5035179;28;20025;-70
2021/03/25 06:11:32;;;;;;;4.53;2.78;;;;;;;17.95;40.62;99702.59;5033893;28;20041;-69
2021/03/25 06:14:28;;;;;;;6.07;3.05;;;;;;;17.97;40.28;99703.94;5034470;28;20092;-71
2021/03/25 06:17:16;;;;;;;4.75;2.80;;;;;;;17.95;40.38;99699.88;5035062;28;20049;-70
2021/03/25 06:20:13;;;;;;;8.00;2.83;;;;;;;17.95;40.24;99702.59;5034664;28;20033;-70
2021/03/25 06:22:57;;;;;;;12.25;3.05;;;;;;;17.94;40.41;99692.81;5033882;28;20060;-70
2021/03/25 06:25:28;;;;;;;6.35;2.72;;;;;;;17.94;40.41;99706.38;5033552;28;20040;-70
2021/03/25 06:28:12;;;;;;;5.57;2.85;;;;;;;17.93;40.41;99702.88;5035263;28;20025;-70
2021/03/25 06:30:49;;;;;;;4.38;2.65;;;;;;;17.92;40.49;99701.22;5033352;28;20068;-70
2021/03/25 06:33:20;;;;;;;7.43;3.10;;;;;;;17.94;40.64;99700.97;5034277;28;20052;-70
2021/03/25 06:35:48;;;;;;;;;;;;;;;17.93;40.54;99702.06;5034193;28;20025;-70
2021/03/25 06:38:25;;;;;;;5.03;2.70;;;;;;;17.95;40.66;99702.59;5035198;28;20252;-70
2021/03/25 06:40:57;;;;;;;4.80;2.60;;;;;;;17.94;40.40;99709.91;5017068;28;20080;-70
2021/03/25 06:43:59;;;;;;;5.65;3.05;;;;;;;17.94;40.55;99714.53;5035077;28;20079;-70
2021/03/25 06:46:38;;;;;;;4.07;3.08;;;;;;;17.92;40.56;99736.47;5049740;28;20069;-70
2021/03/25 06:49:22;;;;;;;5.78;3.10;;;;;;;17.93;40.86;99737.31;5034917;28;20040;-70
2021/03/25 06:51:47;;;;;;;5.53;3.10;;;;;;;17.92;40.64;99741.91;5034254;28;20510;-70
2021/03/25 06:54:31;;;;;;;5.25;3.50;;;;;;;17.93;40.55;99732.69;5033735;28;20029;-70
2021/03/25 06:56:59;;;;;;;7.93;3.55;;;;;;;17.93;40.46;99756.28;5000833;28;20034;-70
2021/03/25 06:59:26;;;;;;;5.28;3.05;;;;;;;17.92;40.72;99758.19;5013888;28;20491;-70
2021/03/25 07:01:55;;;;;;;7.00;3.67;;;;;;;17.92;40.71;99765.50;5013066;28;20037;-70
2021/03/25 07:04:27;;;;;;;6.78;3.33;;;;;;;17.94;40.45;99772.28;5013686;28;20377;-70
2021/03/25 07:07:00;;;;;;;5.03;3.30;;;;;;;17.93;40.66;99767.16;5029821;28;20049;-70
2021/03/25 07:09:28;;;;;;;5.28;2.83;;;;;;;17.92;40.40;99769.03;5034678;28;20029;-71
2021/03/25 07:12:02;;;;;;;8.00;3.10;;;;;;;17.91;40.62;99762.00;5016195;28;20530;-70
2021/03/25 07:14:39;;;;;;;5.82;3.58;;;;;;;17.92;40.39;99766.31;5033140;28;20095;-70
2021/03/25 07:17:05;;;;;;;5.32;3.20;;;;;;;17.93;40.52;99761.72;5033895;28;20034;-70
2021/03/25 07:19:32;;;;;;;7.70;4.00;;;;;;;17.92;40.19;99766.31;5033190;28;20559;-70
2021/03/25 07:22:15;;;;;;;5.97;3.60;;;;;;;17.92;40.02;99776.34;5000455;28;20515;-70
2021/03/25 07:24:41;;;;;;;5.32;3.35;;;;;;;17.92;40.24;99770.94;5014526;28;20472;-70
2021/03/25 07:27:15;;;;;;;6.63;3.25;;;;;;;17.89;40.10;99778.53;5031101;28;20037;-71
2021/03/25 07:29:45;;;;;;;6.15;3.78;;;;;;;17.89;40.33;99783.94;5033184;28;20028;-71
2021/03/25 07:32:15;;;;;;;;;;;;;;;17.92;40.32;99788.00;5014442;28;20065;-69
2021/03/25 07:34:45;;;;;;;6.20;3.50;;;;;;;17.89;40.35;99788.56;5013331;28;20375;-70
2021/03/25 07:37:13;;;;;;;6.38;3.70;;;;;;;17.91;40.27;99791.00;5012607;28;20279;-70
2021/03/25 07:39:48;;;;;;;6.18;3.67;;;;;;;17.91;40.15;99791.00;5013299;28;20022;-70
2021/03/25 07:42:25;;;;;;;5.45;3.47;;;;;;;17.92;40.15;99803.47;5013480;28;20037;-68
2021/03/25 07:44:50;;;;;;;5.82;3.70;;;;;;;17.89;40.21;99802.13;4996680;28;20026;-71
2021/03/25 07:47:27;;;;;;;5.45;3.70;;;;;;;17.89;40.25;99796.69;5012428;28;20045;-71
2021/03/25 07:49:52;;;;;;;6.53;3.53;;;;;;;17.89;40.36;99800.22;5012751;28;20080;-70
2021/03/25 07:52:31;;;;;;;5.97;3.67;;;;;;;17.91;40.21;99793.72;5032067;28;20033;-69
2021/03/25 07:55:12;;;;;;;6.93;3.75;;;;;;;17.91;40.41;99802.66;5032404;28;20021;-69
2021/03/25 07:57:42;;;;;;;5.90;3.30;;;;;;;17.89;40.56;99794.78;5039316;28;20037;-70
2021/03/25 08:00:15;;;;;;;5.50;3.08;;;;;;;17.89;40.24;99800.22;5031860;28;20029;-69
2021/03/25 08:02:41;;;;;;;7.57;3.85;;;;;;;17.89;40.21;99800.22;5032090;28;20564;-70
2021/03/25 08:05:29;;;;;;;5.55;3.83;;;;;;;17.89;40.34;99800.22;5031849;28;20033;-69
2021/03/25 08:07:59;;;;;;;6.30;3.70;;;;;;;17.88;40.32;99804.03;5033371;28;20022;-69
2021/03/25 08:10:29;;;;;;;5.97;3.53;;;;;;;17.89;40.20;99811.06;5031900;28;20128;-69
2021/03/25 08:13:18;;;;;;;5.65;3.33;;;;;;;17.88;40.31;99806.75;5033188;28;20037;-69
2021/03/25 08:15:51;;;;;;;5.72;3.55;;;;;;;17.88;40.22;99814.88;5031709;28;20409;-69
2021/03/25 08:18:35;;;;;;;7.38;3.83;;;;;;;17.89;40.35;99811.06;5032165;28;20104;-69
2021/03/25 08:21:22;;;;;;;7.25;3.80;;;;;;;17.89;40.16;99815.69;5032207;28;20416;-69
2021/03/25 08:23:50;;;;;;;5.90;3.70;;;;;;;17.88;40.19;99812.16;5033368;28;20045;-69
2021/03/25 08:26:26;;;;;;;6.32;3.70;;;;;;;17.88;40.26;99814.88;5032777;28;20038;-69
2021/03/25 08:28:56;;;;;;;6.65;3.75;;;;;;;17.88;40.21;99817.59;5015985;28;20084;-69
2021/03/25 08:31:31;;;;;;;7.67;3.97;;;;;;;17.89;40.36;99816.47;5032385;28;20061;-69
2021/03/25 08:34:19;;;;;;;5.93;4.07;;;;;;;17.87;40.36;99813.25;5033281;28;20636;-69
2021/03/25 08:37:01;;;;;;;6.95;3.83;;;;;;;17.89;40.12;99816.47;5031504;28;20072;-69
2021/03/25 08:39:29;;;;;;;7.13;4.15;;;;;;;17.88;40.17;99814.06;5031800;28;20388;-69
2021/03/25 08:42:23;;;;;;;6.50;4.05;;;;;;;17.86;40.40;99811.63;5015723;28;20038;-69
2021/03/25 08:45:09;;;;;;;8.15;4.60;;;;;;;17.86;40.40;99810.81;5013452;28;20022;-69
2021/03/25 08:47:36;;;;;;;7.18;3.80;;;;;;;17.88;40.16;99814.88;5028111;28;20480;-69
2021/03/25 08:50:11;;;;;;;6.45;3.75;;;;;;;17.88;40.22;99814.88;5012798;28;20077;-68
2021/03/25 08:52:36;;;;;;;7.43;4.25;;;;;;;17.89;40.18;99805.63;5013382;28;20041;-69
2021/03/25 08:55:31;;;;;;;5.97;3.80;;;;;;;17.92;40.33;99811.59;4995501;28;20026;-68
2021/03/25 08:58:35;;;;;;;5.88;4.05;;;;;;;17.91;40.25;99807.28;5031843;28;20168;-69
2021/03/25 09:01:12;;;;;;;5.97;3.80;;;;;;;17.87;40.47;99807.84;5032190;28;20053;-69
2021/03/25 09:03:41;;;;;;;5.43;3.90;;;;;;;17.89;40.36;99811.06;5033026;28;20036;-69
2021/03/25 09:06:19;;;;;;;7.40;4.22;;;;;;;17.89;40.34;99805.63;5006135;28;20033;-69
2021/03/25 09:08:45;;;;;;;5.22;3.65;;;;;;;17.91;40.19;99812.69;5011910;28;20030;-69
2021/03/25 09:11:13;;;;;;;6.28;4.10;;;;;;;17.92;40.23;99825.16;5011329;28;20038;-69
2021/03/25 09:14:01;;;;;;;10.73;4.10;;;;;;;17.92;40.40;99819.75;5013094;28;20034;-69
2021/03/25 09:16:29;;;;;;;6.65;4.07;;;;;;;17.94;40.18;99817.56;5027591;28;20037;-69
2021/03/25 09:18:54;;;;;;;7.43;4.32;;;;;;;17.92;40.40;99825.97;5001811;28;20045;-69
2021/03/25 09:21:32;;;;;;;6.75;3.88;;;;;;;17.94;40.37;99817.56;5036123;28;20044;-69
2021/03/25 09:24:04;;;;;;;9.88;5.60;;;;;;;17.92;40.19;99815.13;5036488;28;20032;-69
2021/03/25 09:26:29;;;;;;;8.90;4.85;;;;;;;17.93;40.04;99813.25;5036069;28;20054;-69
2021/03/25 09:29:06;;;;;;;7.78;4.95;;;;;;;17.94;40.23;99812.16;5036318;28;20486;-69
2021/03/25 09:31:42;;;;;;;8.23;4.55;;;;;;;17.94;40.30;99806.72;5035718;28;20062;-68
2021/03/25 09:34:10;;;;;;;7.70;5.15;;;;;;;17.93;40.01;99805.91;5036295;28;20042;-69
2021/03/25 09:36:35;;;;;;;7.63;5.30;;;;;;;17.91;40.17;99812.69;5035887;28;20095;-69
2021/03/25 09:39:02;;;;;;;7.22;4.97;;;;;;;17.90;40.04;99806.47;5051719;28;20029;-68
2021/03/25 09:41:32;;;;;;;8.18;5.32;;;;;;;17.93;40.15;99807.81;5050918;28;20118;-68
2021/03/25 09:44:09;;;;;;;8.70;5.10;;;;;;;17.93;39.89;99805.09;5036155;28;20087;-68
2021/03/25 09:46:48;;;;;;;9.30;5.38;;;;;;;17.94;40.20;99804.00;5035529;28;20041;-70
2021/03/25 09:49:31;;;;;;;7.65;4.50;;;;;;;17.94;39.92;99806.72;5036393;28;20376;-70
2021/03/25 09:54:44;;;;;;;8.85;5.00;;;;;;;17.94;40.28;99809.44;5036228;28;20052;-69
2021/03/25 09:57:34;;;;;;;8.40;5.32;;;;;;;17.95;40.07;99802.94;5035503;28;20395;-70
2021/03/25 10:00:03;;;;;;;8.63;5.05;;;;;;;17.95;40.15;99801.03;5036141;28;20029;-70
2021/03/25 10:02:37;;;;;;;9.48;4.97;;;;;;;17.94;40.13;99804.81;5035233;28;20041;-70
2021/03/25 10:05:16;;;;;;;6.03;4.50;;;;;;;17.95;40.17;99808.34;5035250;28;20069;-68
2021/03/25 10:07:42;;;;;;;8.32;5.05;;;;;;;17.96;40.07;99805.34;5035855;28;20376;-70
2021/03/25 10:10:33;;;;;;;8.85;5.18;;;;;;;17.98;40.12;99802.38;5035097;28;20025;-68
2021/03/25 10:13:05;;;;;;;9.13;4.90;;;;;;;17.96;40.12;99799.94;5015681;28;20404;-68
2021/03/25 10:15:30;;;;;;;8.23;4.88;;;;;;;17.97;40.08;99781.75;5015216;28;20041;-68
2021/03/25 10:17:57;;;;;;;8.32;4.72;;;;;;;17.94;40.07;99785.84;5015675;28;20083;-68
2021/03/25 10:20:58;;;;;;;6.78;4.75;;;;;;;17.99;39.91;99787.72;4998046;28;20373;-68
2021/03/25 10:23:36;;;;;;;6.78;4.82;;;;;;;18.00;40.32;99781.22;5014572;28;20499;-69
2021/03/25 10:26:01;;;;;;;7.07;5.03;;;;;;;17.99;40.12;99785.00;5023101;28;20480;-68
2021/03/25 10:28:28;;;;;;;8.10;4.78;;;;;;;17.99;40.12;99788.53;5035554;28;20032;-68
2021/03/25 10:31:18;;;;;;;7.90;4.40;;;;;;;18.01;39.84;99783.63;5033341;28;20051;-68
2021/03/25 10:33:44;;;;;;;;;;;;;;;18.02;40.03;99789.88;5034430;28;20029;-68
2021/03/25 10:36:14;;;;;;;7.93;5.20;;;;;;;18.01;40.03;99788.25;5034744;28;19924;-68
2021/03/25 10:38:48;;;;;;;9.20;5.53;;;;;;;18.01;39.96;99790.97;5033956;28;20031;-68
2021/03/25 10:41:25;;;;;;;8.30;5.50;;;;;;;18.03;39.88;99788.78;5034942;28;20120;-69
2021/03/25 10:43:51;;;;;;;9.43;5.38;;;;;;;18.03;39.79;99789.59;5035033;28;20040;-68
2021/03/25 10:46:33;;;;;;;7.30;4.65;;;;;;;18.04;40.07;99787.69;5034604;28;20037;-68
2021/03/25 10:49:00;;;;;;;6.95;4.68;;;;;;;18.07;39.96;99784.41;5017816;28;20411;-68
2021/03/25 10:51:26;;;;;;;10.32;5.63;;;;;;;18.06;40.17;99789.03;5034793;28;20115;-68
2021/03/25 10:53:56;;;;;;;8.55;5.03;;;;;;;18.06;40.32;99788.22;5035139;28;20033;-68
2021/03/25 10:56:26;;;;;;;7.70;4.50;;;;;;;18.05;40.14;99781.19;5005996;28;20042;-68
2021/03/25 10:59:10;;;;;;;6.97;4.53;;;;;;;18.08;40.03;99786.06;5013800;28;20030;-68
2021/03/25 11:01:36;;;;;;;7.57;4.80;;;;;;;18.09;40.31;99782.25;5027442;28;20041;-68
2021/03/25 11:04:21;;;;;;;7.93;5.13;;;;;;;18.10;40.35;99778.47;5033498;28;20471;-68
2021/03/25 11:06:46;;;;;;;8.93;5.10;;;;;;;18.09;40.06;99776.81;5034259;28;20129;-68
2021/03/25 11:09:25;;;;;;;7.45;4.53;;;;;;;18.10;39.98;99778.47;5034421;28;20387;-68
2021/03/25 11:12:12;;;;;;;8.48;5.05;;;;;;;18.09;40.09;99776.81;5033984;28;20243;-68
2021/03/25 11:14:44;;;;;;;6.80;4.63;;;;;;;18.10;40.06;99783.88;5033773;28;20130;-68
2021/03/25 11:17:30;;;;;;;6.10;4.28;;;;;;;18.10;40.06;99778.47;5033990;28;20034;-68
2021/03/25 11:20:01;;;;;;;7.72;4.82;;;;;;;18.09;40.35;99776.81;5033077;28;20072;-68
2021/03/25 11:22:31;;;;;;;7.32;5.25;;;;;;;18.11;40.25;99771.94;5028904;28;20035;-68
2021/03/25 11:25:00;;;;;;;7.55;5.07;;;;;;;18.12;40.27;99781.69;5013496;28;20038;-67
2021/03/25 11:27:26;;;;;;;7.68;4.55;;;;;;;18.15;40.19;99773.00;5029396;28;20117;-68
2021/03/25 11:30:00;;;;;;;8.07;5.20;;;;;;;18.14;40.03;99771.38;4996859;28;20029;-68
2021/03/25 11:32:31;;;;;;;9.23;5.22;;;;;;;18.15;40.31;99773.00;5013654;28;20046;-68
2021/03/25 11:34:56;;;;;;;8.65;4.90;;;;;;;18.17;39.94;99778.13;5029511;28;20366;-68
2021/03/25 11:37:37;;;;;;;7.85;5.20;;;;;;;18.17;40.08;99767.28;5013206;28;20045;-68
2021/03/25 11:40:15;;;;;;;8.73;5.70;;;;;;;18.18;40.02;99766.22;4996760;28;20030;-67
2021/03/25 11:42:44;;;;;;;7.43;5.00;;;;;;;18.19;40.03;99770.53;5034039;28;20009;-69
2021/03/25 11:45:44;;;;;;;6.78;4.85;;;;;;;18.19;40.29;99763.19;5033293;28;20028;-68
2021/03/25 11:48:29;;;;;;;6.80;4.57;;;;;;;18.18;40.03;99756.16;5031273;28;20040;-68
2021/03/25 11:51:17;;;;;;;8.57;5.35;;;;;;;18.21;40.24;99762.94;5033239;28;20045;-68
2021/03/25 11:53:46;;;;;;;9.07;5.03;;;;;;;18.22;40.20;99769.97;5032284;28;20021;-68
2021/03/25 11:56:28;;;;;;;7.28;4.60;;;;;;;18.22;40.29;99768.09;5015548;28;20041;-67
2021/03/25 11:59:14;;;;;;;7.28;5.00;;;;;;;18.24;40.28;99768.59;5033548;28;20491;-67
2021/03/25 12:01:40;;;;;;;7.35;5.03;;;;;;;18.23;40.04;99769.69;5032502;28;20047;-68
2021/03/25 12:04:24;;;;;;;7.78;4.90;;;;;;;18.25;40.28;99759.38;5032230;28;20507;-68
2021/03/25 12:07:09;;;;;;;7.05;4.93;;;;;;;18.26;40.09;99761.00;5033001;28;20029;-68
2021/03/25 12:09:34;;;;;;;6.65;4.60;;;;;;;18.25;40.30;99759.38;5032211;28;20475;-68